createdAt,value
2023-02-16T00:00:43.191Z,40.73
2023-02-16T00:03:12.311Z,48.17
2023-02-16T00:05:40.502Z,37.37
2023-02-16T00:08:07.281Z,44.27
2023-02-16T00:10:37.138Z,39.83
2023-02-16T00:13:19.799Z,36.00
2023-02-16T00:15:46.935Z,37.93
2023-02-16T00:18:17.617Z,38.37
2023-02-16T00:20:46.231Z,36.10
2023-02-16T00:23:13.013Z,39.20
2023-02-16T00:25:39.920Z,37.93
2023-02-16T00:28:14.461Z,40.57
2023-02-16T00:30:41.513Z,40.77
2023-02-16T00:33:14.197Z,39.20
2023-02-16T00:35:40.934Z,43.97
2023-02-16T00:38:09.170Z,43.57
2023-02-16T00:40:35.870Z,36.37
2023-02-16T00:43:02.663Z,36.57
2023-02-16T00:45:30.272Z,34.73
2023-02-16T00:47:56.964Z,38.80
2023-02-16T00:50:26.885Z,33.00
2023-02-16T00:52:54.028Z,34.13
2023-02-16T00:55:24.605Z,39.50
2023-02-16T00:57:53.776Z,34.90
2023-02-16T01:00:23.404Z,36.60
2023-02-16T01:02:52.000Z,32.17
2023-02-16T01:05:19.045Z,35.10
2023-02-16T01:07:45.833Z,32.13
2023-02-16T01:10:12.569Z,28.23
2023-02-16T01:12:40.655Z,36.83
2023-02-16T01:15:12.746Z,34.63
2023-02-16T01:17:39.916Z,37.40
2023-02-16T01:20:14.716Z,33.40
2023-02-16T01:22:41.406Z,38.87
2023-02-16T01:25:08.766Z,30.73
2023-02-16T01:27:36.974Z,30.90
2023-02-16T01:30:06.650Z,28.87
2023-02-16T01:32:33.447Z,28.47
2023-02-16T01:35:00.219Z,28.53
2023-02-16T01:37:26.904Z,31.00
2023-02-16T01:39:53.558Z,27.20
2023-02-16T01:42:31.705Z,33.40
2023-02-16T01:45:01.599Z,37.77
2023-02-16T01:47:38.038Z,28.97
2023-02-16T01:50:16.562Z,29.90
2023-02-16T01:52:44.935Z,32.22
2023-02-16T01:55:19.157Z,32.78
2023-02-16T01:57:49.235Z,33.93
2023-02-16T02:00:22.082Z,31.10
2023-02-16T02:02:53.466Z,36.27
2023-02-16T02:05:24.242Z,30.60
2023-02-16T02:07:56.104Z,25.90
2023-02-16T02:10:29.529Z,27.17
2023-02-16T02:13:03.524Z,27.77
2023-02-16T02:15:32.050Z,34.17
2023-02-16T02:18:00.631Z,36.23
2023-02-16T02:20:39.613Z,30.50
2023-02-16T02:23:23.587Z,29.60
2023-02-16T02:26:35.855Z,26.20
2023-02-16T02:29:18.010Z,23.70
2023-02-16T02:31:56.312Z,25.40
2023-02-16T02:34:36.830Z,27.37
2023-02-16T02:37:11.512Z,25.90
2023-02-16T02:39:49.949Z,27.67
2023-02-16T02:42:24.141Z,29.63
2023-02-16T02:44:55.836Z,26.50
2023-02-16T02:47:22.703Z,25.37
2023-02-16T02:49:50.732Z,27.50
2023-02-16T02:52:17.788Z,27.10
2023-02-16T02:54:45.737Z,25.83
2023-02-16T02:57:16.818Z,27.17
2023-02-16T02:59:47.598Z,25.00
2023-02-16T03:02:17.962Z,22.37
2023-02-16T03:04:46.647Z,27.70
2023-02-16T03:07:14.952Z,24.03
2023-02-16T03:09:41.746Z,25.67
2023-02-16T03:12:09.471Z,25.02
2023-02-16T03:14:40.938Z,26.97
2023-02-16T03:17:11.637Z,23.07
2023-02-16T03:19:41.190Z,23.47
2023-02-16T03:22:07.999Z,25.20
2023-02-16T03:24:34.818Z,24.23
2023-02-16T03:27:02.524Z,23.20
2023-02-16T03:29:29.342Z,34.50
2023-02-16T03:31:57.023Z,30.20
2023-02-16T03:34:24.657Z,27.87
2023-02-16T03:36:55.587Z,25.30
2023-02-16T03:39:22.405Z,26.00
2023-02-16T03:41:50.975Z,22.47
2023-02-16T03:44:18.235Z,25.47
2023-02-16T03:46:45.568Z,28.80
2023-02-16T03:49:12.387Z,25.23
2023-02-16T03:51:39.023Z,27.90
2023-02-16T03:54:07.240Z,22.90
2023-02-16T03:56:33.934Z,22.43
2023-02-16T03:59:00.588Z,24.50
2023-02-16T04:01:27.316Z,25.93
2023-02-16T04:03:54.025Z,25.50
2023-02-16T04:06:20.691Z,27.97
2023-02-16T04:08:47.394Z,24.23
2023-02-16T04:11:15.414Z,21.33
2023-02-16T04:13:42.061Z,28.73
2023-02-16T04:16:08.849Z,27.97
2023-02-16T04:18:35.503Z,29.70
2023-02-16T04:21:02.629Z,25.40
2023-02-16T04:23:29.440Z,25.53
2023-02-16T04:25:56.153Z,26.27
2023-02-16T04:28:24.159Z,23.87
2023-02-16T04:30:50.941Z,24.37
2023-02-16T04:33:17.785Z,23.73
2023-02-16T04:35:44.527Z,28.30
2023-02-16T04:38:11.177Z,26.90
2023-02-16T04:40:37.834Z,20.13
2023-02-16T04:43:04.496Z,25.97
2023-02-16T04:45:32.554Z,24.67
2023-02-16T04:47:59.261Z,22.10
2023-02-16T04:50:25.978Z,22.10
2023-02-16T04:52:52.655Z,33.07
2023-02-16T04:55:19.495Z,26.57
2023-02-16T04:57:46.119Z,24.70
2023-02-16T05:00:13.510Z,25.00
2023-02-16T05:02:41.669Z,22.97
2023-02-16T05:05:09.002Z,26.47
2023-02-16T05:07:35.831Z,26.27
2023-02-16T05:10:02.510Z,32.03
2023-02-16T05:12:29.223Z,22.70
2023-02-16T05:14:55.971Z,26.50
2023-02-16T05:17:24.468Z,32.47
2023-02-16T05:19:54.216Z,22.17
2023-02-16T05:22:20.979Z,25.73
2023-02-16T05:24:48.532Z,18.20
2023-02-16T05:27:17.118Z,23.00
2023-02-16T05:29:43.830Z,19.73
2023-02-16T05:32:10.549Z,20.77
2023-02-16T05:34:37.431Z,24.93
2023-02-16T05:37:05.744Z,20.13
2023-02-16T05:39:32.619Z,23.37
2023-02-16T05:41:59.268Z,20.83
2023-02-16T05:44:26.186Z,24.02
2023-02-16T05:46:52.865Z,19.57
2023-02-16T05:49:19.548Z,21.00
2023-02-16T05:51:46.241Z,18.50
2023-02-16T05:54:14.606Z,23.37
2023-02-16T05:56:41.271Z,22.57
2023-02-16T05:59:07.952Z,23.57
2023-02-16T06:01:34.614Z,20.67
2023-02-16T06:04:01.489Z,24.07
2023-02-16T06:06:28.414Z,24.47
2023-02-16T06:08:55.152Z,23.50
2023-02-16T06:11:23.190Z,21.57
2023-02-16T06:13:49.913Z,21.13
2023-02-16T06:16:16.697Z,19.90
2023-02-16T06:18:44.916Z,20.27
2023-02-16T06:21:11.722Z,23.20
2023-02-16T06:23:38.380Z,21.00
2023-02-16T06:26:05.057Z,22.67
2023-02-16T06:28:33.052Z,23.40
2023-02-16T06:30:59.785Z,20.87
2023-02-16T06:33:26.541Z,22.27
2023-02-16T06:35:53.250Z,29.03
2023-02-16T06:38:19.869Z,26.73
2023-02-16T06:40:46.509Z,23.40
2023-02-16T06:43:13.172Z,22.97
2023-02-16T06:45:41.140Z,21.90
2023-02-16T06:50:58.371Z,18.43
2023-02-16T06:53:25.038Z,21.17
2023-02-16T06:55:51.880Z,21.57
2023-02-16T06:58:18.730Z,22.10
2023-02-16T07:00:46.780Z,28.10
2023-02-16T07:06:04.942Z,20.93
2023-02-16T07:08:31.940Z,26.50
2023-02-16T07:10:58.596Z,30.40
2023-02-16T07:13:25.292Z,28.33
2023-02-16T07:15:53.378Z,30.93
2023-02-16T07:18:20.050Z,28.60
2023-02-16T07:20:47.589Z,23.80
2023-02-16T07:23:14.270Z,23.33
2023-02-16T07:25:40.954Z,25.73
2023-02-16T07:28:07.680Z,26.70
2023-02-16T07:30:35.266Z,24.83
2023-02-16T07:33:03.780Z,25.10
2023-02-16T07:35:30.487Z,26.27
2023-02-16T07:37:57.248Z,23.47
2023-02-16T07:40:24.152Z,26.57
2023-02-16T07:42:50.955Z,29.23
2023-02-16T07:45:17.949Z,22.03
2023-02-16T07:47:44.995Z,24.50
2023-02-16T07:50:13.379Z,25.00
2023-02-16T07:52:40.237Z,25.50
2023-02-16T07:55:07.404Z,28.20
2023-02-16T07:57:34.422Z,22.70
2023-02-16T08:00:01.359Z,23.70
2023-02-16T08:02:28.269Z,24.77
2023-02-16T08:04:55.279Z,31.83
2023-02-16T08:07:23.395Z,23.03
2023-02-16T08:09:50.233Z,30.53
2023-02-16T08:12:17.952Z,21.87
2023-02-16T08:14:45.349Z,31.17
2023-02-16T08:17:12.771Z,34.50
2023-02-16T08:19:39.846Z,29.80
2023-02-16T08:22:07.674Z,29.80
2023-02-16T08:24:36.475Z,35.00
2023-02-16T08:27:05.047Z,32.60
2023-02-16T08:29:32.625Z,37.60
2023-02-16T08:31:59.737Z,26.60
2023-02-16T08:34:27.060Z,39.17
2023-02-16T08:36:55.710Z,34.00
2023-02-16T08:39:24.810Z,39.07
2023-02-16T08:41:53.780Z,34.27
2023-02-16T08:44:22.689Z,38.77
2023-02-16T08:46:51.449Z,32.73
2023-02-16T08:49:19.310Z,39.13
2023-02-16T08:51:48.959Z,38.07
2023-02-16T08:54:18.099Z,35.77
2023-02-16T08:56:45.421Z,29.50
2023-02-16T08:59:14.714Z,40.00
2023-02-16T09:01:41.851Z,43.77
2023-02-16T09:04:08.912Z,46.40
2023-02-16T09:06:37.550Z,37.47
2023-02-16T09:09:05.390Z,31.70
2023-02-16T09:11:32.560Z,34.40
2023-02-16T09:13:59.642Z,31.00
2023-02-16T09:16:28.457Z,30.17
2023-02-16T09:18:55.714Z,29.77
2023-02-16T09:21:24.967Z,31.53
2023-02-16T09:23:53.519Z,32.57
2023-02-16T09:26:23.522Z,31.07
2023-02-16T09:28:50.665Z,33.00
2023-02-16T09:31:19.259Z,36.30
2023-02-16T09:33:47.339Z,38.80
2023-02-16T09:36:14.162Z,40.47
2023-02-16T09:38:40.939Z,38.87
2023-02-16T09:41:15.611Z,34.17
2023-02-16T09:43:49.254Z,44.23
2023-02-16T09:46:22.185Z,34.23
2023-02-16T09:48:51.400Z,40.53
2023-02-16T09:51:29.392Z,39.57
2023-02-16T09:54:00.516Z,38.60
2023-02-16T09:56:31.595Z,39.67
2023-02-16T09:59:03.594Z,47.10
2023-02-16T10:01:38.323Z,40.43
2023-02-16T10:04:24.142Z,41.43
2023-02-16T10:07:00.818Z,39.53
2023-02-16T10:09:28.881Z,37.40
2023-02-16T10:12:02.258Z,28.93
2023-02-16T10:14:34.628Z,44.03
2023-02-16T10:17:11.324Z,35.90
2023-02-16T10:19:46.577Z,36.80
2023-02-16T10:22:17.774Z,40.50
2023-02-16T10:24:52.634Z,39.00
2023-02-16T10:27:22.122Z,37.93
2023-02-16T10:29:49.042Z,38.73
2023-02-16T10:32:24.677Z,36.57
2023-02-16T10:35:00.128Z,38.40
2023-02-16T10:37:44.042Z,49.40
2023-02-16T10:40:26.643Z,38.20
2023-02-16T10:42:58.652Z,44.50
2023-02-16T10:45:31.101Z,37.03
2023-02-16T10:47:58.362Z,39.70
2023-02-16T10:50:29.866Z,39.83
2023-02-16T10:53:00.004Z,36.47
2023-02-16T10:55:26.893Z,32.10
2023-02-16T10:57:56.211Z,33.50
2023-02-16T11:00:34.044Z,35.87
2023-02-16T11:03:02.544Z,34.77
2023-02-16T11:05:36.196Z,35.10
2023-02-16T11:08:03.807Z,38.10
2023-02-16T11:10:44.111Z,40.20
2023-02-16T11:13:22.313Z,36.20
2023-02-16T11:15:52.870Z,37.30
2023-02-16T11:18:30.893Z,37.47
2023-02-16T11:20:59.989Z,36.00
2023-02-16T11:23:28.687Z,34.03
2023-02-16T11:25:58.970Z,35.57
2023-02-16T11:28:28.975Z,38.47
2023-02-16T11:31:03.702Z,35.83
2023-02-16T11:33:32.221Z,38.20
2023-02-16T11:36:00.529Z,32.50
2023-02-16T11:38:30.506Z,36.33
2023-02-16T11:40:59.358Z,28.67
2023-02-16T11:43:29.294Z,31.20
2023-02-16T11:46:01.278Z,29.07
2023-02-16T11:48:30.399Z,30.50
2023-02-16T11:51:01.192Z,32.57
2023-02-16T11:53:30.402Z,29.90
2023-02-16T11:56:13.522Z,28.00
2023-02-16T11:58:41.074Z,26.97
2023-02-16T12:01:20.766Z,26.33
2023-02-16T12:04:02.855Z,28.33
2023-02-16T12:06:44.938Z,30.60
2023-02-16T12:09:24.780Z,25.50
2023-02-16T12:12:00.390Z,32.63
2023-02-16T12:14:49.052Z,30.40
2023-02-16T12:17:31.622Z,27.50
2023-02-16T12:20:05.017Z,36.30
2023-02-16T12:22:39.877Z,31.10
2023-02-16T12:25:20.764Z,28.93
2023-02-16T12:27:53.850Z,29.20
2023-02-16T12:30:30.246Z,30.03
2023-02-16T12:33:21.430Z,24.80
2023-02-16T12:36:01.015Z,30.97
2023-02-16T12:38:40.616Z,24.87
2023-02-16T12:41:21.131Z,26.43
2023-02-16T12:43:51.595Z,29.33
2023-02-16T12:46:24.646Z,30.07
2023-02-16T12:48:56.760Z,24.77
2023-02-16T12:51:28.641Z,26.97
2023-02-16T12:54:02.364Z,22.30
2023-02-16T12:56:32.985Z,23.90
2023-02-16T12:59:17.318Z,24.20
2023-02-16T13:01:46.942Z,25.60
2023-02-16T13:04:19.520Z,24.23
2023-02-16T13:06:55.858Z,22.23
2023-02-16T13:09:36.081Z,22.63
2023-02-16T13:12:08.164Z,23.03
2023-02-16T13:14:39.829Z,23.17
2023-02-16T13:17:13.998Z,24.13
2023-02-16T13:19:41.682Z,26.10
2023-02-16T13:22:37.652Z,27.40
2023-02-16T13:25:24.429Z,25.37
2023-02-16T13:28:01.655Z,27.33
2023-02-16T13:30:56.712Z,19.80
2023-02-16T13:33:48.316Z,22.60
2023-02-16T13:36:33.148Z,27.37
2023-02-16T13:39:23.454Z,27.93
2023-02-16T13:42:28.896Z,20.83
2023-02-16T13:44:59.707Z,19.70
2023-02-16T13:47:30.236Z,22.03
2023-02-16T13:49:58.366Z,20.53
2023-02-16T13:52:31.638Z,22.43
2023-02-16T13:54:59.776Z,24.47
2023-02-16T13:58:04.755Z,22.37
2023-02-16T14:00:35.656Z,21.27
2023-02-16T14:03:05.508Z,21.93
2023-02-16T14:05:35.275Z,26.80
2023-02-16T14:08:22.905Z,22.90
2023-02-16T14:11:13.805Z,24.63
2023-02-16T14:13:46.719Z,23.40
2023-02-16T14:16:30.676Z,28.03
2023-02-16T14:18:59.926Z,25.70
2023-02-16T14:21:38.655Z,24.80
2023-02-16T14:24:10.296Z,26.60
2023-02-16T14:26:53.721Z,29.07
2023-02-16T14:29:23.994Z,23.63
2023-02-16T14:31:57.276Z,24.87
2023-02-16T14:34:28.899Z,34.77
2023-02-16T14:37:31.446Z,23.57
2023-02-16T14:40:13.523Z,31.43
2023-02-16T14:42:47.993Z,22.30
2023-02-16T14:45:41.225Z,26.53
2023-02-16T14:48:19.494Z,25.40
2023-02-16T14:51:01.427Z,21.67
2023-02-16T14:54:09.976Z,26.30
2023-02-16T14:56:42.775Z,25.73
2023-02-16T14:59:26.878Z,27.67
2023-02-16T15:01:53.729Z,26.13
2023-02-16T15:04:36.210Z,24.63
2023-02-16T15:07:05.981Z,27.40
2023-02-16T15:09:34.606Z,26.23
2023-02-16T15:12:04.557Z,27.57
2023-02-16T15:14:35.202Z,27.03
2023-02-16T15:17:07.388Z,27.73
2023-02-16T15:19:36.281Z,26.87
2023-02-16T15:22:19.833Z,19.27
2023-02-16T15:24:55.883Z,21.13
2023-02-16T15:27:23.449Z,18.03
2023-02-16T15:30:04.072Z,25.60
2023-02-16T15:32:31.944Z,19.80
2023-02-16T15:35:09.968Z,24.07
2023-02-16T15:37:36.657Z,23.93
2023-02-16T15:40:24.871Z,22.63
2023-02-16T15:42:55.559Z,21.23
2023-02-16T15:45:31.119Z,21.13
2023-02-16T15:48:25.344Z,25.93
2023-02-16T15:50:55.580Z,25.37
2023-02-16T15:53:28.074Z,20.43
2023-02-16T15:55:55.146Z,27.90
2023-02-16T15:58:21.922Z,21.17
2023-02-16T16:00:48.728Z,29.80
2023-02-16T16:03:17.361Z,27.23
2023-02-16T16:05:57.499Z,24.30
2023-02-16T16:08:27.221Z,29.63
2023-02-16T16:10:57.300Z,23.00
2023-02-16T16:13:27.402Z,21.83
2023-02-16T16:15:59.370Z,25.57
2023-02-16T16:18:37.445Z,28.30
2023-02-16T16:21:13.813Z,34.60
2023-02-16T16:23:40.643Z,25.77
2023-02-16T16:26:17.312Z,30.73
2023-02-16T16:28:44.085Z,26.43
2023-02-16T16:31:13.061Z,26.20
2023-02-16T16:33:53.303Z,25.03
2023-02-16T16:36:27.458Z,26.27
2023-02-16T16:39:20.353Z,26.47
2023-02-16T16:42:09.128Z,23.93
2023-02-16T16:44:38.454Z,31.07
2023-02-16T16:47:23.865Z,31.33
2023-02-16T16:49:53.742Z,22.93
2023-02-16T16:52:31.850Z,30.27
2023-02-16T16:54:58.510Z,28.30
2023-02-16T16:57:25.221Z,23.60
2023-02-16T16:59:51.890Z,24.73
2023-02-16T17:02:18.626Z,24.40
2023-02-16T17:04:45.275Z,24.50
2023-02-16T17:07:11.960Z,27.43
2023-02-16T17:09:39.938Z,25.77
2023-02-16T17:12:09.136Z,22.90
2023-02-16T17:14:35.885Z,24.73
2023-02-16T17:17:02.671Z,27.60
2023-02-16T17:19:29.329Z,31.77
2023-02-16T17:21:56.013Z,24.77
2023-02-16T17:24:22.693Z,26.93
2023-02-16T17:26:50.708Z,29.30
2023-02-16T17:29:17.414Z,24.90
2023-02-16T17:31:44.110Z,23.77
2023-02-16T17:34:10.778Z,25.77
2023-02-16T17:36:37.598Z,32.10
2023-02-16T17:39:04.604Z,29.10
2023-02-16T17:41:31.292Z,26.70
2023-02-16T17:43:59.273Z,27.93
2023-02-16T17:46:25.933Z,26.23
2023-02-16T17:48:54.002Z,27.20
2023-02-16T17:51:23.433Z,25.43
2023-02-16T17:53:50.204Z,20.97
2023-02-16T17:56:20.336Z,31.77
2023-02-16T17:58:47.133Z,28.47
2023-02-16T18:01:17.006Z,19.93
2023-02-16T18:03:43.830Z,22.53
2023-02-16T18:06:12.813Z,24.57
2023-02-16T18:08:39.499Z,40.10
2023-02-16T18:11:06.585Z,23.80
2023-02-16T18:13:33.453Z,17.27
2023-02-16T18:16:00.450Z,24.63
2023-02-16T18:18:29.021Z,20.33
2023-02-16T18:20:56.136Z,24.70
2023-02-16T18:23:23.045Z,22.23
2023-02-16T18:25:49.744Z,20.67
2023-02-16T18:28:18.450Z,22.27
2023-02-16T18:30:45.634Z,19.90
2023-02-16T18:33:12.338Z,21.27
2023-02-16T18:35:40.449Z,22.07
2023-02-16T18:38:07.284Z,23.80
2023-02-16T18:40:33.964Z,22.03
2023-02-16T18:43:00.700Z,23.53
2023-02-16T18:45:27.381Z,22.67
2023-02-16T18:47:54.276Z,23.40
2023-02-16T18:50:21.141Z,18.60
2023-02-16T18:52:49.183Z,20.77
2023-02-16T18:55:16.354Z,21.53
2023-02-16T18:57:43.160Z,21.53
2023-02-16T19:00:12.282Z,22.40
2023-02-16T19:02:39.008Z,25.80
2023-02-16T19:05:05.720Z,24.77
2023-02-16T19:07:32.447Z,22.37
2023-02-16T19:10:00.559Z,22.77
2023-02-16T19:12:27.305Z,23.97
2023-02-16T19:14:54.088Z,22.30
2023-02-16T19:17:20.803Z,19.10
2023-02-16T19:19:47.559Z,25.10
2023-02-16T19:22:14.260Z,20.70
2023-02-16T19:24:41.148Z,24.77
2023-02-16T19:27:09.161Z,23.77
2023-02-16T19:29:35.857Z,25.57
2023-02-16T19:32:02.560Z,25.13
2023-02-16T19:34:29.277Z,31.13
2023-02-16T19:36:55.985Z,24.00
2023-02-16T19:39:22.684Z,25.50
2023-02-16T19:41:49.367Z,24.87
2023-02-16T19:44:17.401Z,28.80
2023-02-16T19:46:44.147Z,23.13
2023-02-16T19:49:13.406Z,21.67
2023-02-16T19:51:40.220Z,24.37
2023-02-16T19:54:06.915Z,20.80
2023-02-16T19:56:33.604Z,26.07
2023-02-16T19:59:00.252Z,30.10
2023-02-16T20:01:28.683Z,26.07
2023-02-16T20:03:57.358Z,26.17
2023-02-16T20:06:26.267Z,24.43
2023-02-16T20:08:54.760Z,26.90
2023-02-16T20:11:23.789Z,24.57
2023-02-16T20:13:50.857Z,27.67
2023-02-16T20:16:18.586Z,31.17
2023-02-16T20:18:47.223Z,26.57
2023-02-16T20:21:16.061Z,27.43
2023-02-16T20:23:42.897Z,29.33
2023-02-16T20:26:11.997Z,27.50
2023-02-16T20:28:39.070Z,27.63
2023-02-16T20:31:11.070Z,31.20
2023-02-16T20:33:42.883Z,26.07
2023-02-16T20:36:11.934Z,26.73
2023-02-16T20:38:38.917Z,32.97
2023-02-16T20:41:06.382Z,27.50
2023-02-16T20:43:33.524Z,28.10
2023-02-16T20:46:01.336Z,30.23
2023-02-16T20:48:28.109Z,29.77
2023-02-16T20:50:55.170Z,28.10
2023-02-16T20:53:24.278Z,28.43
2023-02-16T20:55:50.986Z,28.47
2023-02-16T20:58:17.690Z,29.67
2023-02-16T21:00:44.768Z,27.07
2023-02-16T21:03:11.508Z,27.50
2023-02-16T21:05:38.439Z,23.57
2023-02-16T21:08:05.385Z,27.83
2023-02-16T21:10:33.389Z,27.17
2023-02-16T21:13:00.113Z,31.67
2023-02-16T21:15:26.837Z,28.80
2023-02-16T21:17:53.613Z,30.27
2023-02-16T21:20:20.405Z,33.43
2023-02-16T21:22:47.132Z,26.90
2023-02-16T21:25:13.801Z,28.60
2023-02-16T21:27:41.805Z,24.93
2023-02-16T21:30:09.899Z,24.43
2023-02-16T21:32:36.631Z,29.43
2023-02-16T21:35:03.326Z,30.33
2023-02-16T21:37:30.130Z,29.77
2023-02-16T21:39:56.884Z,29.10
2023-02-16T21:42:23.563Z,30.13
2023-02-16T21:44:51.681Z,28.00
2023-02-16T21:47:18.354Z,32.63
2023-02-16T21:49:45.045Z,38.77
2023-02-16T21:52:11.705Z,32.20
2023-02-16T21:54:38.372Z,31.07
2023-02-16T21:57:05.028Z,29.93
2023-02-16T21:59:31.695Z,25.97
2023-02-16T22:01:59.764Z,32.57
2023-02-16T22:04:26.422Z,30.10
2023-02-16T22:06:53.113Z,31.50
2023-02-16T22:09:21.889Z,25.50
2023-02-16T22:11:49.368Z,33.90
2023-02-16T22:14:16.399Z,29.07
2023-02-16T22:16:45.153Z,23.07
2023-02-16T22:19:14.966Z,30.50
2023-02-16T22:21:43.651Z,28.97
2023-02-16T22:24:12.688Z,26.17
2023-02-16T22:26:39.499Z,28.47
2023-02-16T22:29:07.450Z,29.60
2023-02-16T22:31:34.864Z,33.03
2023-02-16T22:34:03.832Z,33.83
2023-02-16T22:36:32.366Z,30.10
2023-02-16T22:38:59.314Z,29.10
2023-02-16T22:41:26.349Z,36.93
2023-02-16T22:43:53.523Z,29.07
2023-02-16T22:46:20.668Z,27.80
2023-02-16T22:48:47.780Z,29.37
2023-02-16T22:51:15.830Z,35.40
2023-02-16T22:53:43.840Z,29.73
2023-02-16T22:56:13.801Z,31.80
2023-02-16T22:58:40.649Z,31.43
2023-02-16T23:01:11.054Z,31.57
2023-02-16T23:03:38.021Z,29.17
2023-02-16T23:06:11.567Z,33.87
2023-02-16T23:08:38.231Z,35.80
2023-02-16T23:11:06.351Z,30.17
2023-02-16T23:13:34.051Z,29.27
2023-02-16T23:16:05.112Z,30.37
2023-02-16T23:18:32.040Z,26.80
2023-02-16T23:21:05.231Z,32.90
2023-02-16T23:23:32.005Z,34.83
2023-02-16T23:25:58.663Z,28.70
2023-02-16T23:28:26.675Z,31.63
2023-02-16T23:30:56.670Z,30.27
2023-02-16T23:33:23.712Z,30.13
2023-02-16T23:35:50.495Z,31.53
2023-02-16T23:38:17.397Z,30.47
2023-02-16T23:40:44.077Z,29.33
2023-02-16T23:43:10.762Z,43.73
2023-02-16T23:45:39.151Z,31.63
2023-02-16T23:48:06.124Z,35.43
2023-02-16T23:50:32.808Z,31.20
2023-02-16T23:52:59.470Z,32.40
2023-02-16T23:55:26.113Z,33.00
2023-02-16T23:57:52.777Z,33.77
